Time;durP1;ratioP1;P1;durP2;ratioP2;P2;SDS_P1;SDS_P2;PMS_P1;PMS_P2;Temp;Humidity;BMP_temperature;BMP_pressure;BME280_temperature;BME280_humidity;BME280_pressure;Samples;Min_cycle;Max_cycle;Signal;HPM_P1;HPM_P2
2021/01/07 00:00:45;;;;;;;34.00;15.23;;;;;;;;;;4982692;28;20285;-76
2021/01/07 00:03:56;;;;;;;35.23;15.73;;;;;;;;;;4975598;28;20281;-76
2021/01/07 00:07:07;;;;;;;37.07;15.87;;;;;;;;;;4984392;28;20345;-75
2021/01/07 00:10:19;;;;;;;40.43;16.57;;;;;;;;;;4991587;28;20289;-75
2021/01/07 00:13:30;;;;;;;41.93;16.97;;;;;;;;;;4983916;28;20204;-75
2021/01/07 00:16:40;;;;;;;38.97;15.40;;;;;;;;;;5001254;28;20213;-76
2021/01/07 00:19:52;;;;;;;43.70;17.77;;;;;;;;;;4974746;28;20595;-76
2021/01/07 00:23:03;;;;;;;38.07;15.43;;;;;;;;;;4993878;28;20257;-76
2021/01/07 00:26:16;;;;;;;37.03;15.90;;;;;;;;;;4986095;28;20742;-75
2021/01/07 00:29:27;;;;;;;40.83;16.60;;;;;;;;;;4980569;28;20288;-75
2021/01/07 00:32:37;;;;;;;38.57;15.93;;;;;;;;;;4990890;28;20285;-75
2021/01/07 00:35:50;;;;;;;40.87;16.90;;;;;;;;;;4983789;28;20202;-75
2021/01/07 00:39:02;;;;;;;38.20;15.13;;;;;;;;;;4986071;28;20205;-75
2021/01/07 00:42:16;;;;;;;32.57;14.73;;;;;;;;;;4990975;28;20233;-75
2021/01/07 00:45:28;;;;;;;39.10;15.10;;;;;;;;;;4995147;28;20213;-75
2021/01/07 00:48:39;;;;;;;37.87;15.90;;;;;;;;;;5001569;28;20252;-75
2021/01/07 00:51:49;;;;;;;36.60;15.57;;;;;;;;;;4983092;28;20228;-75
2021/01/07 00:55:03;;;;;;;39.60;16.33;;;;;;;;;;4995999;28;20710;-76
2021/01/07 00:58:13;;;;;;;42.00;17.57;;;;;;;;;;4987711;28;20204;-75
2021/01/07 01:01:25;;;;;;;35.80;15.37;;;;;;;;;;4991565;28;20723;-75
2021/01/07 01:04:35;;;;;;;36.40;15.40;;;;;;;;;;4981512;28;20294;-75
2021/01/07 01:07:46;;;;;;;38.80;15.87;;;;;;;;;;4979823;28;20229;-75
2021/01/07 01:10:59;;;;;;;36.67;15.27;;;;;;;;;;4975635;28;20229;-76
2021/01/07 01:14:10;;;;;;;38.57;16.67;;;;;;;;;;4984255;28;20217;-75
2021/01/07 01:17:22;;;;;;;35.80;15.30;;;;;;;;;;4990670;28;20284;-76
2021/01/07 01:20:33;;;;;;;41.47;16.00;;;;;;;;;;4991885;28;20317;-75
2021/01/07 01:23:43;;;;;;;37.73;15.97;;;;;;;;;;4980534;28;20260;-75
2021/01/07 01:26:56;;;;;;;36.73;16.00;;;;;;;;;;4980794;28;20205;-75
2021/01/07 01:30:07;;;;;;;35.23;14.57;;;;;;;;;;4983110;28;20209;-75
2021/01/07 01:33:18;;;;;;;34.43;15.00;;;;;;;;;;4978743;28;20212;-75
2021/01/07 01:36:31;;;;;;;35.30;14.80;;;;;;;;;;4987462;28;20237;-75
2021/01/07 01:39:42;;;;;;;34.87;15.30;;;;;;;;;;4985559;28;20700;-75
2021/01/07 01:42:53;;;;;;;34.73;14.53;;;;;;;;;;4991437;28;20184;-76
2021/01/07 01:46:05;;;;;;;34.00;14.97;;;;;;;;;;5017649;28;20310;-76
2021/01/07 01:49:16;;;;;;;34.07;14.70;;;;;;;;;;4987811;28;20314;-76
2021/01/07 01:52:28;;;;;;;35.90;14.67;;;;;;;;;;4984271;28;20284;-76
2021/01/07 01:55:40;;;;;;;33.83;15.00;;;;;;;;;;4991045;28;20253;-76
2021/01/07 01:58:52;;;;;;;33.43;14.00;;;;;;;;;;4998438;28;20256;-76
2021/01/07 02:02:05;;;;;;;32.27;14.70;;;;;;;;;;4995425;28;20736;-75
2021/01/07 02:05:15;;;;;;;34.37;15.23;;;;;;;;;;4983842;28;20213;-76
2021/01/07 02:08:29;;;;;;;35.73;14.47;;;;;;;;;;4989573;28;20216;-75
2021/01/07 02:11:39;;;;;;;35.17;14.67;;;;;;;;;;5005162;28;20372;-75
2021/01/07 02:14:51;;;;;;;31.83;14.07;;;;;;;;;;4983544;28;20201;-75
2021/01/07 02:18:02;;;;;;;38.03;15.90;;;;;;;;;;4992665;28;20200;-75
2021/01/07 02:21:15;;;;;;;34.87;15.63;;;;;;;;;;4994343;28;20738;-75
2021/01/07 02:24:26;;;;;;;37.77;15.47;;;;;;;;;;4984995;28;20213;-75
2021/01/07 02:27:37;;;;;;;33.90;15.20;;;;;;;;;;4989013;28;20574;-76
2021/01/07 02:30:49;;;;;;;35.13;15.03;;;;;;;;;;4985390;28;20260;-75
2021/01/07 02:34:00;;;;;;;35.00;15.10;;;;;;;;;;4994367;28;20390;-75
2021/01/07 02:37:12;;;;;;;33.13;14.50;;;;;;;;;;4984366;28;20617;-75
2021/01/07 02:40:23;;;;;;;33.40;14.63;;;;;;;;;;4975474;28;20233;-75
2021/01/07 02:43:33;;;;;;;33.47;14.73;;;;;;;;;;4986984;28;20256;-75
2021/01/07 02:46:45;;;;;;;31.60;14.23;;;;;;;;;;4992761;28;20289;-76
2021/01/07 02:49:56;;;;;;;32.73;13.90;;;;;;;;;;5001575;28;20276;-76
2021/01/07 02:53:07;;;;;;;33.70;14.40;;;;;;;;;;4981206;28;20205;-76
2021/01/07 02:56:19;;;;;;;31.67;13.93;;;;;;;;;;4983035;28;20673;-76
2021/01/07 02:59:29;;;;;;;33.37;14.57;;;;;;;;;;4993407;28;20249;-76
2021/01/07 03:02:41;;;;;;;40.73;15.07;;;;;;;;;;4982930;28;20675;-75
2021/01/07 03:05:52;;;;;;;32.30;14.73;;;;;;;;;;4992950;28;20729;-75
2021/01/07 03:09:04;;;;;;;38.37;15.53;;;;;;;;;;5004658;28;20265;-75
2021/01/07 03:12:18;;;;;;;33.33;15.00;;;;;;;;;;5001324;28;20252;-75
2021/01/07 03:15:29;;;;;;;36.87;16.07;;;;;;;;;;5014180;28;20216;-75
2021/01/07 03:18:40;;;;;;;38.20;15.80;;;;;;;;;;4989486;28;20746;-75
2021/01/07 03:21:51;;;;;;;46.07;15.80;;;;;;;;;;4996532;28;20228;-75
2021/01/07 03:25:03;;;;;;;35.73;15.73;;;;;;;;;;4985782;28;20904;-75
2021/01/07 03:28:14;;;;;;;36.97;16.23;;;;;;;;;;4990230;28;20229;-76
2021/01/07 03:31:26;;;;;;;37.20;15.77;;;;;;;;;;4992966;28;20229;-76
2021/01/07 03:34:37;;;;;;;38.03;16.77;;;;;;;;;;4989408;28;20205;-75
2021/01/07 03:37:48;;;;;;;41.13;17.07;;;;;;;;;;4985732;28;20269;-76
2021/01/07 03:40:59;;;;;;;37.63;16.07;;;;;;;;;;4977099;28;20229;-76
2021/01/07 03:44:10;;;;;;;38.73;15.90;;;;;;;;;;4993593;28;20696;-76
2021/01/07 03:47:21;;;;;;;37.23;16.43;;;;;;;;;;4980354;28;20286;-76
2021/01/07 03:50:32;;;;;;;40.83;17.13;;;;;;;;;;4981953;28;20681;-76
2021/01/07 03:53:44;;;;;;;36.70;15.83;;;;;;;;;;4982730;28;20199;-75
2021/01/07 03:56:56;;;;;;;38.47;15.60;;;;;;;;;;4990380;28;20651;-76
2021/01/07 04:00:08;;;;;;;38.27;16.33;;;;;;;;;;4981503;28;20218;-75
2021/01/07 04:03:20;;;;;;;38.53;16.73;;;;;;;;;;4990208;28;20205;-76
2021/01/07 04:06:31;;;;;;;41.93;16.03;;;;;;;;;;4980143;28;20236;-76
2021/01/07 04:09:42;;;;;;;43.27;17.03;;;;;;;;;;4986982;28;20240;-76
2021/01/07 04:12:53;;;;;;;48.13;18.70;;;;;;;;;;4981793;28;20261;-76
2021/01/07 04:16:05;;;;;;;36.63;16.47;;;;;;;;;;4980023;28;20214;-75
2021/01/07 04:19:16;;;;;;;35.97;15.70;;;;;;;;;;4975096;28;20217;-76
2021/01/07 04:22:27;;;;;;;43.37;17.37;;;;;;;;;;4987194;28;20224;-76
2021/01/07 04:25:38;;;;;;;39.70;16.07;;;;;;;;;;4990221;28;20293;-76
2021/01/07 04:28:49;;;;;;;46.37;17.57;;;;;;;;;;4993681;28;20304;-75
2021/01/07 04:32:10;;;;;;;45.20;17.43;;;;;;;;;;4983312;28;20235;-75
2021/01/07 04:35:21;;;;;;;37.00;14.90;;;;;;;;;;4985999;28;20202;-75
2021/01/07 04:38:35;;;;;;;42.40;16.93;;;;;;;;;;4990815;28;20202;-75
2021/01/07 04:41:46;;;;;;;34.50;14.87;;;;;;;;;;4991045;28;20260;-75
2021/01/07 04:44:59;;;;;;;42.67;16.47;;;;;;;;;;4984079;28;20297;-75
2021/01/07 04:48:11;;;;;;;34.63;15.70;;;;;;;;;;4990542;28;20734;-75
2021/01/07 04:51:22;;;;;;;41.87;16.57;;;;;;;;;;4983208;28;20233;-76
2021/01/07 04:54:33;;;;;;;36.10;15.80;;;;;;;;;;4979973;28;20205;-76
2021/01/07 04:57:45;;;;;;;37.47;16.20;;;;;;;;;;4987799;28;20341;-76
2021/01/07 05:00:58;;;;;;;39.00;16.10;;;;;;;;;;4981149;28;20230;-76
2021/01/07 05:04:10;;;;;;;39.70;16.83;;;;;;;;;;4991323;28;20233;-76
2021/01/07 05:07:21;;;;;;;36.90;16.27;;;;;;;;;;5010967;28;20209;-75
2021/01/07 05:10:32;;;;;;;41.57;16.67;;;;;;;;;;5004321;28;20204;-75
2021/01/07 05:13:44;;;;;;;38.07;16.40;;;;;;;;;;4982972;28;20273;-76
2021/01/07 05:16:56;;;;;;;41.97;16.33;;;;;;;;;;4993169;28;20260;-76
2021/01/07 05:20:10;;;;;;;43.23;17.10;;;;;;;;;;5005172;28;20220;-76
2021/01/07 05:23:22;;;;;;;43.67;17.97;;;;;;;;;;4991679;28;20321;-76
2021/01/07 05:26:32;;;;;;;41.03;16.90;;;;;;;;;;4990355;28;20209;-75
2021/01/07 05:29:44;;;;;;;38.13;15.67;;;;;;;;;;5002212;28;20214;-75
2021/01/07 05:33:01;;;;;;;38.27;16.10;;;;;;;;;;4981976;28;20252;-75
2021/01/07 05:36:21;;;;;;;41.47;16.37;;;;;;;;;;4989901;28;20591;-75
2021/01/07 05:39:35;;;;;;;41.10;16.27;;;;;;;;;;4993872;28;20228;-75
2021/01/07 05:42:47;;;;;;;45.43;17.67;;;;;;;;;;4994565;28;20220;-75
2021/01/07 05:45:59;;;;;;;41.67;16.27;;;;;;;;;;4979905;28;20201;-75
2021/01/07 05:49:10;;;;;;;45.33;16.60;;;;;;;;;;4995574;28;20306;-75
2021/01/07 05:52:22;;;;;;;41.60;16.83;;;;;;;;;;4992827;28;20272;-75
2021/01/07 05:55:33;;;;;;;45.87;18.00;;;;;;;;;;4999794;28;20221;-76
2021/01/07 05:58:44;;;;;;;37.83;16.30;;;;;;;;;;4998657;28;20213;-76
2021/01/07 06:01:56;;;;;;;43.63;16.93;;;;;;;;;;4984294;28;21109;-76
2021/01/07 06:05:09;;;;;;;38.93;15.90;;;;;;;;;;4988221;28;20333;-76
2021/01/07 06:08:20;;;;;;;35.60;14.90;;;;;;;;;;4992053;28;20283;-75
2021/01/07 06:11:32;;;;;;;37.00;15.33;;;;;;;;;;4986347;28;20602;-75
2021/01/07 06:14:43;;;;;;;39.30;15.67;;;;;;;;;;4994608;28;20233;-75
2021/01/07 06:17:54;;;;;;;41.93;16.40;;;;;;;;;;4993931;28;20209;-75
2021/01/07 06:21:08;;;;;;;36.67;16.13;;;;;;;;;;5002880;28;20284;-76
2021/01/07 06:24:21;;;;;;;41.87;16.80;;;;;;;;;;4991997;28;20227;-74
2021/01/07 06:27:33;;;;;;;37.60;15.43;;;;;;;;;;4991327;28;20293;-76
2021/01/07 06:30:44;;;;;;;37.70;15.40;;;;;;;;;;5003688;28;20822;-75
2021/01/07 06:33:55;;;;;;;39.83;15.23;;;;;;;;;;4990801;28;20233;-74
2021/01/07 06:37:07;;;;;;;41.10;16.57;;;;;;;;;;4976280;28;20276;-75
2021/01/07 06:40:19;;;;;;;47.67;17.17;;;;;;;;;;4980322;28;20252;-75
2021/01/07 06:43:31;;;;;;;43.57;18.03;;;;;;;;;;4984834;28;20209;-75
2021/01/07 06:46:43;;;;;;;39.13;16.33;;;;;;;;;;4985196;28;20253;-75
2021/01/07 06:49:55;;;;;;;41.07;16.50;;;;;;;;;;4987509;28;20245;-74
2021/01/07 06:53:08;;;;;;;45.17;17.73;;;;;;;;;;4989677;28;20205;-75
2021/01/07 06:56:22;;;;;;;45.80;16.30;;;;;;;;;;4987169;28;20253;-75
2021/01/07 06:59:32;;;;;;;38.77;15.57;;;;;;;;;;4995961;28;20284;-75
2021/01/07 07:02:57;;;;;;;41.33;15.93;;;;;;;;;;4998267;28;20269;-75
2021/01/07 07:06:09;;;;;;;37.93;16.33;;;;;;;;;;4994959;28;20317;-74
2021/01/07 07:09:25;;;;;;;41.90;16.50;;;;;;;;;;4980265;28;20272;-76
2021/01/07 07:12:36;;;;;;;45.43;17.87;;;;;;;;;;4975838;28;20769;-75
2021/01/07 07:15:47;;;;;;;42.87;17.20;;;;;;;;;;4995229;28;20205;-75
2021/01/07 07:18:59;;;;;;;45.03;17.73;;;;;;;;;;5010646;28;20210;-75
2021/01/07 07:22:10;;;;;;;45.93;18.27;;;;;;;;;;4998509;28;20275;-74
2021/01/07 07:25:23;;;;;;;45.83;17.57;;;;;;;;;;4992700;28;20248;-75
2021/01/07 07:29:05;;;;;;;40.33;16.53;;;;;;;;;;4989778;28;20197;-74
2021/01/07 07:32:53;;;;;;;42.57;17.20;;;;;;;;;;4994222;28;20783;-75
2021/01/07 07:36:04;;;;;;;37.87;15.67;;;;;;;;;;4997849;28;20685;-75
2021/01/07 07:39:16;;;;;;;40.90;16.83;;;;;;;;;;4980180;28;20246;-75
2021/01/07 07:42:29;;;;;;;43.23;17.03;;;;;;;;;;4987831;28;20280;-76
2021/01/07 07:45:41;;;;;;;44.60;17.00;;;;;;;;;;4986950;28;20240;-76
2021/01/07 07:48:59;;;;;;;44.13;17.40;;;;;;;;;;4988072;28;20253;-76
2021/01/07 07:52:10;;;;;;;38.17;16.73;;;;;;;;;;4981903;28;20310;-75
2021/01/07 07:55:22;;;;;;;37.53;16.10;;;;;;;;;;4988921;28;20212;-76
2021/01/07 07:58:33;;;;;;;40.20;16.80;;;;;;;;;;4985283;28;20242;-74
2021/01/07 08:01:46;;;;;;;36.00;15.83;;;;;;;;;;4985563;28;20724;-75
2021/01/07 08:04:58;;;;;;;40.57;16.43;;;;;;;;;;4980234;28;20198;-75
2021/01/07 08:08:09;;;;;;;45.67;17.37;;;;;;;;;;4985914;28;20273;-76
2021/01/07 08:11:20;;;;;;;44.53;16.90;;;;;;;;;;4992840;28;20268;-75
2021/01/07 08:14:33;;;;;;;44.00;16.17;;;;;;;;;;4986111;28;20252;-76
2021/01/07 08:17:44;;;;;;;42.93;17.23;;;;;;;;;;4985378;28;20685;-75
2021/01/07 08:20:55;;;;;;;37.13;15.70;;;;;;;;;;4988987;28;20236;-76
2021/01/07 08:24:10;;;;;;;46.10;19.23;;;;;;;;;;4981196;28;20251;-76
2021/01/07 08:27:23;;;;;;;53.37;18.57;;;;;;;;;;4982826;28;20198;-76
2021/01/07 08:30:38;;;;;;;49.07;19.90;;;;;;;;;;4979424;28;20201;-77
2021/01/07 08:33:51;;;;;;;37.77;16.17;;;;;;;;;;4985445;28;20245;-75
2021/01/07 08:37:11;;;;;;;41.20;17.73;;;;;;;;;;4993897;28;20234;-76
2021/01/07 08:40:22;;;;;;;39.77;17.17;;;;;;;;;;4982761;28;20229;-76
2021/01/07 08:43:35;;;;;;;37.40;16.77;;;;;;;;;;4990757;28;20212;-75
2021/01/07 08:46:49;;;;;;;44.37;18.20;;;;;;;;;;4999715;28;20271;-75
2021/01/07 08:50:07;;;;;;;41.33;18.47;;;;;;;;;;4993684;28;20292;-76
2021/01/07 08:53:18;;;;;;;43.60;18.00;;;;;;;;;;5000454;28;20205;-76
2021/01/07 08:56:30;;;;;;;40.33;16.37;;;;;;;;;;4988955;28;20272;-76
2021/01/07 08:59:42;;;;;;;38.53;16.57;;;;;;;;;;4981040;28;20722;-76
2021/01/07 09:03:01;;;;;;;38.73;17.63;;;;;;;;;;4982230;28;20607;-77
2021/01/07 09:06:13;;;;;;;39.60;17.67;;;;;;;;;;4990425;28;20678;-76
2021/01/07 09:09:25;;;;;;;43.77;16.80;;;;;;;;;;4987003;28;20256;-75
2021/01/07 09:12:37;;;;;;;40.97;17.63;;;;;;;;;;4981505;28;20225;-76
2021/01/07 09:15:49;;;;;;;40.60;17.33;;;;;;;;;;4979871;28;20253;-75
2021/01/07 09:19:05;;;;;;;37.27;16.23;;;;;;;;;;4979168;28;20224;-75
2021/01/07 09:22:17;;;;;;;42.80;15.77;;;;;;;;;;4971919;28;20230;-76
2021/01/07 09:25:28;;;;;;;36.37;15.83;;;;;;;;;;4986267;28;20220;-76
2021/01/07 09:28:39;;;;;;;37.17;15.97;;;;;;;;;;4998713;28;20225;-75
2021/01/07 09:31:51;;;;;;;37.50;16.07;;;;;;;;;;4984972;28;20735;-76
2021/01/07 09:35:02;;;;;;;37.53;15.83;;;;;;;;;;5000880;28;20217;-75
2021/01/07 09:38:14;;;;;;;35.67;15.40;;;;;;;;;;4982519;28;20209;-75
2021/01/07 09:41:26;;;;;;;32.20;14.53;;;;;;;;;;4973271;28;20321;-76
2021/01/07 09:44:37;;;;;;;34.97;14.67;;;;;;;;;;4981386;28;20205;-76
2021/01/07 09:47:49;;;;;;;35.97;15.73;;;;;;;;;;4991175;28;20340;-76
2021/01/07 09:51:01;;;;;;;42.77;16.13;;;;;;;;;;4991201;28;20228;-75
2021/01/07 09:54:12;;;;;;;35.77;15.87;;;;;;;;;;4991851;28;20204;-76
2021/01/07 09:57:27;;;;;;;40.17;15.27;;;;;;;;;;4981189;28;20220;-75
2021/01/07 10:00:39;;;;;;;37.90;16.20;;;;;;;;;;4993593;28;20221;-74
2021/01/07 10:03:52;;;;;;;40.73;16.63;;;;;;;;;;4997144;28;20197;-75
2021/01/07 10:07:05;;;;;;;38.33;17.13;;;;;;;;;;5008826;28;20630;-75
2021/01/07 10:10:16;;;;;;;37.07;16.63;;;;;;;;;;4989725;28;20249;-75
2021/01/07 10:13:28;;;;;;;36.13;16.10;;;;;;;;;;4984091;28;20214;-74
2021/01/07 10:16:40;;;;;;;35.03;15.67;;;;;;;;;;4982579;28;20213;-75
2021/01/07 10:19:51;;;;;;;34.47;14.67;;;;;;;;;;4988754;28;20332;-74
2021/01/07 10:23:06;;;;;;;36.47;16.30;;;;;;;;;;4994512;28;20265;-75
2021/01/07 10:26:17;;;;;;;30.63;14.30;;;;;;;;;;4993667;28;20570;-75
2021/01/07 10:29:32;;;;;;;28.90;14.20;;;;;;;;;;4992874;28;20591;-75
2021/01/07 10:32:43;;;;;;;37.50;15.90;;;;;;;;;;4990832;28;20233;-74
2021/01/07 10:35:54;;;;;;;34.23;13.97;;;;;;;;;;4993071;28;20256;-74
2021/01/07 10:39:07;;;;;;;29.07;13.73;;;;;;;;;;4974778;28;20217;-75
2021/01/07 10:42:18;;;;;;;29.20;13.37;;;;;;;;;;4991079;28;20741;-75
2021/01/07 10:45:29;;;;;;;31.10;14.70;;;;;;;;;;5004778;28;20225;-75
2021/01/07 10:48:43;;;;;;;30.87;14.00;;;;;;;;;;5021571;28;20240;-75
2021/01/07 10:52:03;;;;;;;30.30;13.73;;;;;;;;;;5004718;28;20260;-75
2021/01/07 10:55:21;;;;;;;29.87;13.57;;;;;;;;;;4990776;28;20593;-76
2021/01/07 10:58:42;;;;;;;28.70;13.63;;;;;;;;;;4990830;28;20268;-76
2021/01/07 11:02:08;;;;;;;30.40;14.90;;;;;;;;;;4993828;28;20600;-76
2021/01/07 11:05:21;;;;;;;37.17;17.33;;;;;;;;;;4984692;28;20197;-75
2021/01/07 11:08:35;;;;;;;29.90;13.83;;;;;;;;;;4991540;28;20852;-75
2021/01/07 11:11:51;;;;;;;29.17;12.90;;;;;;;;;;4986174;28;20248;-74
2021/01/07 11:15:04;;;;;;;26.03;12.83;;;;;;;;;;4986168;28;20244;-75
2021/01/07 11:18:22;;;;;;;29.63;13.07;;;;;;;;;;4996555;28;20225;-75
2021/01/07 11:21:37;;;;;;;27.43;13.40;;;;;;;;;;4993093;28;20247;-75
2021/01/07 11:24:48;;;;;;;26.90;12.83;;;;;;;;;;4979171;28;20580;-75
2021/01/07 11:28:01;;;;;;;28.57;13.30;;;;;;;;;;4988041;28;20823;-75
2021/01/07 11:31:13;;;;;;;28.00;13.30;;;;;;;;;;4987857;28;20237;-75
2021/01/07 11:34:26;;;;;;;29.53;13.27;;;;;;;;;;4990386;28;20301;-75
2021/01/07 11:37:45;;;;;;;24.90;12.80;;;;;;;;;;4995425;28;20216;-75
2021/01/07 11:40:56;;;;;;;29.70;13.90;;;;;;;;;;4992620;28;20248;-75
2021/01/07 11:44:14;;;;;;;27.40;12.53;;;;;;;;;;4992832;28;20196;-75
2021/01/07 11:47:28;;;;;;;28.80;13.30;;;;;;;;;;4985791;28;20197;-75
2021/01/07 11:50:42;;;;;;;25.73;12.33;;;;;;;;;;4990377;28;20192;-75
2021/01/07 11:53:58;;;;;;;28.57;13.43;;;;;;;;;;4983837;28;20625;-75
2021/01/07 11:57:09;;;;;;;23.37;11.43;;;;;;;;;;4999490;28;20216;-76
2021/01/07 12:00:22;;;;;;;26.43;12.80;;;;;;;;;;4988885;28;20229;-75
2021/01/07 12:03:33;;;;;;;26.83;12.90;;;;;;;;;;4983466;28;20213;-76
2021/01/07 12:06:48;;;;;;;27.60;12.93;;;;;;;;;;4991543;28;20293;-77
2021/01/07 12:10:02;;;;;;;27.53;12.63;;;;;;;;;;4990022;28;20625;-75
2021/01/07 12:13:20;;;;;;;31.07;14.57;;;;;;;;;;4991283;28;20209;-76
2021/01/07 12:16:35;;;;;;;28.77;13.50;;;;;;;;;;4998131;28;20217;-76
2021/01/07 12:19:46;;;;;;;28.17;13.60;;;;;;;;;;4994310;28;20228;-76
2021/01/07 12:22:58;;;;;;;34.77;15.40;;;;;;;;;;4990438;28;20739;-76
2021/01/07 12:26:10;;;;;;;28.63;13.67;;;;;;;;;;4992676;28;20320;-75
2021/01/07 12:29:23;;;;;;;34.40;15.03;;;;;;;;;;4985113;28;20201;-76
2021/01/07 12:32:37;;;;;;;32.60;14.73;;;;;;;;;;4996061;28;20724;-76
2021/01/07 12:35:53;;;;;;;35.87;15.27;;;;;;;;;;5004409;28;20212;-76
2021/01/07 12:39:06;;;;;;;31.77;14.23;;;;;;;;;;5006363;28;20230;-77
2021/01/07 12:42:18;;;;;;;31.17;14.23;;;;;;;;;;4987959;28;20767;-76
2021/01/07 12:45:38;;;;;;;24.47;12.80;;;;;;;;;;4987680;28;20233;-76
2021/01/07 12:48:51;;;;;;;32.00;13.87;;;;;;;;;;4982959;28;20309;-76
2021/01/07 12:52:04;;;;;;;30.70;13.40;;;;;;;;;;5002630;28;20228;-76
2021/01/07 12:55:15;;;;;;;31.27;13.37;;;;;;;;;;4987089;28;20590;-76
2021/01/07 12:58:26;;;;;;;30.50;13.97;;;;;;;;;;4984828;28;20295;-76
2021/01/07 13:01:39;;;;;;;31.50;15.33;;;;;;;;;;4991902;28;20236;-76
2021/01/07 13:04:56;;;;;;;32.50;14.80;;;;;;;;;;4983206;28;20252;-77
2021/01/07 13:08:08;;;;;;;35.23;14.27;;;;;;;;;;4992565;28;20283;-77
2021/01/07 13:11:19;;;;;;;28.43;13.07;;;;;;;;;;4983015;28;20229;-76
2021/01/07 13:14:32;;;;;;;30.60;14.40;;;;;;;;;;4996245;28;20243;-81
2021/01/07 13:17:43;;;;;;;35.43;15.27;;;;;;;;;;4982781;28;20224;-77
2021/01/07 13:20:56;;;;;;;29.70;14.87;;;;;;;;;;4986814;28;20240;-75
2021/01/07 13:24:07;;;;;;;32.13;14.60;;;;;;;;;;4994385;28;20568;-76
2021/01/07 13:27:20;;;;;;;29.63;13.97;;;;;;;;;;4992827;28;20255;-77
2021/01/07 13:30:31;;;;;;;86.13;20.33;;;;;;;;;;4992062;28;20208;-77
2021/01/07 13:33:43;;;;;;;32.83;14.87;;;;;;;;;;4983884;28;20255;-75
2021/01/07 13:36:54;;;;;;;32.10;15.03;;;;;;;;;;4990516;28;20205;-76
2021/01/07 13:40:06;;;;;;;30.70;14.63;;;;;;;;;;4995705;28;20402;-76
2021/01/07 13:43:20;;;;;;;34.13;15.70;;;;;;;;;;4995224;28;20245;-76
2021/01/07 13:46:30;;;;;;;35.87;16.40;;;;;;;;;;4995556;28;20228;-76
2021/01/07 13:49:43;;;;;;;34.07;15.67;;;;;;;;;;4993484;28;20324;-77
2021/01/07 13:52:57;;;;;;;36.70;15.93;;;;;;;;;;4986392;28;20607;-77
2021/01/07 13:56:09;;;;;;;31.93;15.23;;;;;;;;;;4995400;28;20279;-76
2021/01/07 13:59:20;;;;;;;34.07;15.57;;;;;;;;;;4995756;28;20380;-76
2021/01/07 14:02:33;;;;;;;33.00;15.77;;;;;;;;;;4995912;28;20280;-76
2021/01/07 14:05:45;;;;;;;40.97;16.57;;;;;;;;;;4976200;28;20647;-76
2021/01/07 14:09:05;;;;;;;34.77;15.67;;;;;;;;;;4986376;28;20230;-77
2021/01/07 14:12:19;;;;;;;31.07;14.33;;;;;;;;;;4990780;28;20236;-76
2021/01/07 14:15:31;;;;;;;34.10;15.90;;;;;;;;;;4996270;28;20201;-76
2021/01/07 14:18:44;;;;;;;43.03;18.13;;;;;;;;;;5005378;28;20193;-76
2021/01/07 14:21:56;;;;;;;36.93;16.57;;;;;;;;;;5013890;28;20248;-76
2021/01/07 14:25:09;;;;;;;36.00;15.93;;;;;;;;;;5006865;28;20200;-76
2021/01/07 14:28:23;;;;;;;34.03;16.23;;;;;;;;;;4994669;28;20590;-77
2021/01/07 14:31:34;;;;;;;35.63;16.10;;;;;;;;;;4994756;28;20667;-77
2021/01/07 14:34:47;;;;;;;32.90;15.17;;;;;;;;;;4994705;28;20347;-76
2021/01/07 14:37:59;;;;;;;36.23;16.27;;;;;;;;;;4994510;28;20237;-76
2021/01/07 14:41:11;;;;;;;36.70;16.67;;;;;;;;;;4986729;28;20669;-75
2021/01/07 14:44:21;;;;;;;40.60;16.70;;;;;;;;;;4976883;28;20213;-77
2021/01/07 14:47:34;;;;;;;43.10;18.10;;;;;;;;;;4981709;28;20224;-77
2021/01/07 14:50:45;;;;;;;36.80;17.17;;;;;;;;;;5004899;28;20236;-77
2021/01/07 14:54:00;;;;;;;44.07;19.30;;;;;;;;;;5011497;28;20212;-77
2021/01/07 14:57:13;;;;;;;40.43;18.13;;;;;;;;;;5002075;28;20209;-77
2021/01/07 15:00:33;;;;;;;43.77;18.70;;;;;;;;;;5009466;28;20697;-77
2021/01/07 15:03:59;;;;;;;49.90;21.97;;;;;;;;;;4996438;28;20229;-76
2021/01/07 15:07:18;;;;;;;53.03;21.90;;;;;;;;;;5010379;28;20264;-77
2021/01/07 15:10:29;;;;;;;52.17;21.23;;;;;;;;;;5008254;28;20270;-76
2021/01/07 15:13:47;;;;;;;49.33;20.30;;;;;;;;;;5009136;28;21049;-77
2021/01/07 15:17:09;;;;;;;56.27;22.03;;;;;;;;;;5012703;28;20240;-76
2021/01/07 15:20:32;;;;;;;59.43;22.60;;;;;;;;;;5003093;28;20285;-76
2021/01/07 15:24:02;;;;;;;68.97;25.20;;;;;;;;;;4987674;28;20213;-76
2021/01/07 15:27:28;;;;;;;65.10;24.17;;;;;;;;;;4979782;28;20202;-76
2021/01/07 15:30:41;;;;;;;63.03;22.43;;;;;;;;;;4984392;28;20615;-74
2021/01/07 15:33:55;;;;;;;49.90;21.20;;;;;;;;;;4974178;28;20674;-74
2021/01/07 15:37:17;;;;;;;55.13;21.57;;;;;;;;;;4980536;28;20197;-74
2021/01/07 15:40:37;;;;;;;49.80;21.03;;;;;;;;;;4989049;28;20249;-74
2021/01/07 15:44:13;;;;;;;47.10;19.40;;;;;;;;;;4983140;28;20217;-73
2021/01/07 15:47:42;;;;;;;49.33;20.37;;;;;;;;;;4983894;28;20252;-74
2021/01/07 15:51:02;;;;;;;44.40;18.77;;;;;;;;;;4989164;28;20283;-76
2021/01/07 15:54:28;;;;;;;51.70;19.57;;;;;;;;;;4982795;28;20218;-74
2021/01/07 15:57:57;;;;;;;46.90;19.53;;;;;;;;;;4991833;28;20689;-74
2021/01/07 16:01:13;;;;;;;47.67;22.00;;;;;;;;;;4981291;28;20232;-74
2021/01/07 16:04:26;;;;;;;45.67;19.37;;;;;;;;;;4990317;28;20193;-76
2021/01/07 16:08:11;;;;;;;50.03;20.33;;;;;;;;;;4988523;28;20627;-76
2021/01/07 16:11:24;;;;;;;52.33;22.20;;;;;;;;;;4986071;28;20241;-76
2021/01/07 16:14:36;;;;;;;51.27;20.63;;;;;;;;;;5000892;28;20217;-78
2021/01/07 16:17:48;;;;;;;51.07;21.07;;;;;;;;;;4979890;28;20265;-76
2021/01/07 16:21:01;;;;;;;45.63;20.30;;;;;;;;;;4983786;28;20249;-77
2021/01/07 16:24:12;;;;;;;44.43;18.50;;;;;;;;;;4978945;28;20558;-76
2021/01/07 16:27:30;;;;;;;49.20;19.33;;;;;;;;;;4992396;28;20643;-76
2021/01/07 16:30:42;;;;;;;125.63;38.83;;;;;;;;;;4987368;28;21017;-76
2021/01/07 16:33:54;;;;;;;97.40;35.20;;;;;;;;;;4988337;28;20272;-75
2021/01/07 16:37:07;;;;;;;53.47;21.93;;;;;;;;;;4992992;28;20201;-77
2021/01/07 16:40:20;;;;;;;55.17;23.70;;;;;;;;;;4988013;28;20209;-77
2021/01/07 16:43:31;;;;;;;54.10;22.20;;;;;;;;;;4991966;28;20689;-75
2021/01/07 16:46:41;;;;;;;49.90;20.67;;;;;;;;;;4992995;28;20201;-76
2021/01/07 16:49:52;;;;;;;48.40;21.50;;;;;;;;;;4999019;28;20224;-76
2021/01/07 16:53:04;;;;;;;51.60;21.60;;;;;;;;;;4983536;28;20728;-76
2021/01/07 16:56:16;;;;;;;48.00;20.93;;;;;;;;;;5001304;28;20201;-77
2021/01/07 16:59:30;;;;;;;47.17;19.77;;;;;;;;;;4989327;28;20586;-76
2021/01/07 17:02:42;;;;;;;44.00;19.40;;;;;;;;;;4991050;28;20255;-75
2021/01/07 17:05:53;;;;;;;42.40;18.83;;;;;;;;;;4986063;28;20229;-76
2021/01/07 17:09:05;;;;;;;48.93;19.77;;;;;;;;;;4984120;28;20285;-76
2021/01/07 17:12:18;;;;;;;43.40;19.00;;;;;;;;;;4995021;28;20240;-76
2021/01/07 17:15:29;;;;;;;43.03;18.30;;;;;;;;;;5005869;28;20643;-76
2021/01/07 17:18:40;;;;;;;45.47;19.27;;;;;;;;;;4998612;28;20634;-75
2021/01/07 17:21:54;;;;;;;45.03;20.50;;;;;;;;;;4990408;28;20260;-76
2021/01/07 17:25:08;;;;;;;50.23;21.50;;;;;;;;;;4989668;28;20210;-77
2021/01/07 17:28:18;;;;;;;45.93;20.43;;;;;;;;;;5000707;28;20589;-76
2021/01/07 17:31:30;;;;;;;51.87;21.17;;;;;;;;;;5007134;28;20236;-76
2021/01/07 17:34:40;;;;;;;43.43;19.07;;;;;;;;;;4986647;28;20205;-77
2021/01/07 17:37:52;;;;;;;47.70;19.37;;;;;;;;;;4985316;28;20285;-78
2021/01/07 17:41:05;;;;;;;46.47;19.73;;;;;;;;;;4986939;28;20225;-76
2021/01/07 17:44:17;;;;;;;54.20;20.60;;;;;;;;;;4996388;28;20252;-76
2021/01/07 17:47:28;;;;;;;46.70;19.97;;;;;;;;;;4999360;28;20244;-78
2021/01/07 17:50:40;;;;;;;49.97;21.30;;;;;;;;;;5005817;28;20717;-76
2021/01/07 17:53:51;;;;;;;70.20;33.57;;;;;;;;;;5010060;28;20261;-77
2021/01/07 17:57:04;;;;;;;52.97;21.77;;;;;;;;;;4999918;28;20218;-78
2021/01/07 18:00:16;;;;;;;56.40;22.10;;;;;;;;;;4990247;28;20830;-77
2021/01/07 18:03:28;;;;;;;56.47;22.47;;;;;;;;;;4981881;28;20296;-76
2021/01/07 18:06:40;;;;;;;60.93;23.37;;;;;;;;;;4985152;28;20341;-76
2021/01/07 18:09:51;;;;;;;56.60;24.00;;;;;;;;;;4980418;28;20698;-76
2021/01/07 18:13:04;;;;;;;66.03;28.17;;;;;;;;;;4988791;28;20705;-75
2021/01/07 18:16:15;;;;;;;63.27;24.57;;;;;;;;;;4994275;28;20694;-76
2021/01/07 18:19:29;;;;;;;55.23;24.20;;;;;;;;;;4984276;28;20200;-77
2021/01/07 18:22:41;;;;;;;61.43;23.93;;;;;;;;;;4991227;28;20240;-76
2021/01/07 18:25:52;;;;;;;57.80;23.03;;;;;;;;;;4991470;28;20290;-78
2021/01/07 18:29:06;;;;;;;54.33;22.30;;;;;;;;;;4978196;28;20551;-77
2021/01/07 18:32:17;;;;;;;54.60;22.93;;;;;;;;;;4987422;28;20313;-76
2021/01/07 18:35:29;;;;;;;54.27;22.00;;;;;;;;;;4984359;28;20193;-76
2021/01/07 18:38:40;;;;;;;47.90;20.27;;;;;;;;;;4990341;28;20252;-76
2021/01/07 18:41:50;;;;;;;49.27;20.53;;;;;;;;;;4994653;28;20309;-75